Latest Weather Observations for Grove

IDT60801

Issued at 6:31 am EST Tuesday 27 June 2017 (issued every 30 minutes, with the page automatically refreshed every 10 minutes)

About weather observations | Map of weather stations | Latest weather observations for TAS | Other Formats
Station Details ID: 094220 Name: GROVE (RESEARCH STATION) Lat: -42.99 Lon: 147.07 Height: 65.0 m
Data from the previous 72 hours. | See also: Recent months at Grove
Date/Time
EST
Temp
°C
App
Temp
°C
Dew
Point
°C
Rel
Hum
%
Delta-T
°C
Wind Press
QNH
hPa
Press
MSL
hPa
Rain since
9am
mm
Dir  Spd
km/h
Gust
km/h
Spd
kts
Gust
kts
27/06:30am -3.0 - - - - CALM 0 0 0 0 - - 0.0
27/06:00am -2.9 - - - - CALM 0 0 0 0 - - 0.0
27/05:30am -2.7 - - - - NNE 7 9 4 5 - - 0.0
27/05:00am -2.8 - - - - CALM 0 0 0 0 - - 0.0
27/04:30am -2.4 - - - - CALM 0 0 0 0 - - 0.0
27/04:00am -2.2 - - - - NNE 4 7 2 4 - - 0.0
27/03:30am -1.9 - - - - NNE 9 11 5 6 - - 0.0
27/03:00am -2.2 - - - - NE 4 9 2 5 - - 0.0
27/02:30am -1.7 - - - - NNE 6 9 3 5 - - 0.0
27/02:00am -2.1 - - - - CALM 0 0 0 0 - - 0.0
27/01:30am -1.8 - - - - ENE 4 7 2 4 - - 0.0
27/01:00am -1.3 - - - - N 7 9 4 5 - - 0.0
27/12:30am -1.6 - - - - NE 6 7 3 4 - - 0.0
27/12:00am -1.2 - - - - NNE 2 11 1 6 - - 0.0
 
Date/Time
EST
Temp
°C
App
Temp
°C
Dew
Point
°C
Rel
Hum
%
Delta-T
°C
Wind Press
QNH
hPa
Press
MSL
hPa
Rain since
9am
mm
Dir  Spd
km/h
Gust
km/h
Spd
kts
Gust
kts
26/11:30pm -1.0 - - - - CALM 0 0 0 0 - - 0.0
26/11:00pm -0.5 - - - - CALM 0 0 0 0 - - 0.0
26/10:30pm -0.3 - - - - ENE 9 11 5 6 - - 0.0
26/10:00pm 0.2 - - - - CALM 0 0 0 0 - - 0.0
26/09:30pm 0.4 -1.9 0.4 100 0.0 N 2 9 1 5 - - 0.0
26/09:00pm 1.0 -1.6 0.7 98 0.1 NNE 4 7 2 4 - - 0.0
26/08:30pm 1.7 -1.2 1.4 98 0.1 N 6 7 3 4 - - 0.0
26/08:00pm 2.0 -1.0 1.7 98 0.1 NNE 7 9 4 5 - - 0.0
26/07:30pm 3.6 0.4 2.9 95 0.3 NNE 9 11 5 6 - - 0.0
26/07:00pm 3.9 1.2 2.9 93 0.4 NE 6 11 3 6 - - 0.0
26/06:30pm 4.1 1.4 2.6 90 0.6 ENE 6 11 3 6 - - 0.0
26/06:00pm 5.9 4.4 3.0 82 1.2 CALM 0 0 0 0 - - 0.0
26/05:30pm 8.0 6.6 3.3 72 2.0 CALM 0 7 0 4 - - 0.0
26/05:00pm 8.6 5.6 4.0 73 2.0 SSW 9 11 5 6 - - 0.0
26/04:30pm 8.8 6.3 4.5 74 1.9 SSW 7 9 4 5 - - 0.0
26/04:00pm 9.5 6.4 3.8 67 2.5 WSW 9 13 5 7 - - 0.0
26/03:30pm 9.9 6.4 3.5 64 2.8 WSW 11 17 6 9 - - 0.0
26/03:00pm 10.1 7.6 4.5 68 2.5 SSW 7 9 4 5 - - 0.0
26/02:30pm 9.7 6.4 4.8 71 2.2 WSW 11 17 6 9 - - 0.0
26/02:00pm 9.1 5.5 5.1 76 1.8 SW 13 20 7 11 - - 0.0
26/01:30pm 10.2 6.9 4.4 67 2.6 SW 11 17 6 9 - - 0.0
26/01:00pm 10.3 7.3 4.0 65 2.8 S 9 15 5 8 - - 0.0
26/12:30pm 10.2 7.2 4.1 66 2.7 S 9 15 5 8 - - 0.0
26/12:00pm 10.5 7.8 3.7 63 3.0 SSW 7 13 4 7 - - 0.0
26/11:30am 10.3 7.3 4.0 65 2.8 SW 9 13 5 7 - - 0.0
26/11:00am 9.8 6.3 3.6 65 2.7 WSW 11 17 6 9 - - 0.0
26/10:30am 8.9 6.5 5.1 77 1.7 SW 7 11 4 6 - - 0.0
26/10:00am 6.0 4.0 4.4 89 0.7 WNW 4 7 2 4 - - 0.0
26/09:30am 4.7 2.2 3.7 93 0.4 N 6 7 3 4 - - 0.0
26/09:00am 3.2 1.0 3.2 100 0.0 NNE 4 7 2 4 - - 3.8
26/08:30am 2.4 0.7 2.1 98 0.1 CALM 0 6 0 3 - - 3.8
26/08:00am 2.2 0.5 1.9 98 0.1 CALM 0 9 0 5 - - 3.8
26/07:30am 2.6 0.6 2.3 98 0.1 NNW 2 7 1 4 - - 3.8
26/07:00am 1.9 0.2 1.6 98 0.1 CALM 0 0 0 0 - - 3.8
26/06:30am 1.8 -1.1 1.5 98 0.1 NNW 6 6 3 3 - - 3.8
26/06:00am 1.9 -1.0 1.6 98 0.1 E 6 9 3 5 - - 3.8
26/05:30am 2.2 -0.6 1.9 98 0.1 NE 6 9 3 5 - - 3.8
26/05:00am 2.7 0.0 2.4 98 0.1 NNE 6 7 3 4 - - 3.8
26/04:30am 3.3 1.8 3.1 99 0.1 CALM 0 0 0 0 - - 3.8
26/04:00am 3.3 1.8 2.8 97 0.2 CALM 0 6 0 3 - - 3.8
26/03:30am 3.6 0.8 3.1 97 0.2 NE 7 9 4 5 - - 3.8
26/03:00am 3.7 1.1 3.2 97 0.2 NNE 6 7 3 4 - - 3.8
26/02:30am 3.5 0.7 3.0 97 0.2 NNE 7 9 4 5 - - 3.8
26/02:00am 4.2 2.7 3.2 93 0.4 CALM 0 6 0 3 - - 3.8
26/01:30am 4.3 2.4 2.8 90 0.6 ESE 2 7 1 4 - - 3.8
26/01:00am 5.5 3.3 3.1 84 1.0 E 4 6 2 3 - - 3.8
26/12:30am 5.0 2.5 3.6 91 0.6 NNW 6 9 3 5 - - 3.8
26/12:00am 5.9 1.9 3.0 82 1.2 WSW 13 19 7 10 - - 3.8
 
Date/Time
EST
Temp
°C
App
Temp
°C
Dew
Point
°C
Rel
Hum
%
Delta-T
°C
Wind Press
QNH
hPa
Press
MSL
hPa
Rain since
9am
mm
Dir  Spd
km/h
Gust
km/h
Spd
kts
Gust
kts
25/11:30pm 4.3 2.9 3.8 97 0.2 CALM 0 2 0 1 - - 3.8
25/11:00pm 4.0 1.2 3.0 93 0.4 NE 7 11 4 6 - - 3.8
25/10:30pm 4.2 1.7 3.5 95 0.3 E 6 9 3 5 - - 3.8
25/10:00pm 4.6 2.5 3.9 95 0.3 ENE 4 9 2 5 - - 3.8
25/09:30pm 6.2 3.2 4.1 86 0.9 WNW 9 15 5 8 - - 3.8
25/09:00pm 6.7 3.3 4.1 83 1.1 W 11 19 6 10 - - 3.8
25/08:30pm 7.2 2.7 4.2 81 1.3 WSW 17 28 9 15 - - 3.8
25/08:00pm 7.3 3.5 3.8 78 1.5 SW 13 20 7 11 - - 3.6
25/07:30pm 7.3 3.5 4.1 80 1.4 SW 13 20 7 11 - - 3.6
25/07:00pm 6.9 3.6 4.6 85 1.0 SW 11 15 6 8 - - 3.6
25/06:30pm 6.7 4.3 5.1 89 0.7 SW 7 9 4 5 - - 3.4
25/06:00pm 7.7 4.4 4.3 79 1.5 WSW 11 17 6 9 - - 3.2
25/05:30pm 8.5 3.2 3.1 69 2.3 W 20 32 11 17 - - 3.2
25/05:00pm 8.2 5.0 5.3 82 1.3 WSW 11 15 6 8 - - 3.2
25/04:30pm 8.4 5.6 5.0 79 1.5 SW 9 15 5 8 - - 3.0
25/04:00pm 9.4 6.4 4.2 70 2.3 SSW 9 13 5 7 - - 3.0
25/03:30pm 9.8 4.7 2.8 61 3.0 WSW 19 26 10 14 - - 3.0
25/03:00pm 9.9 5.2 2.9 62 3.0 W 17 26 9 14 - - 3.0
25/02:30pm 9.6 7.3 4.9 72 2.1 W 6 15 3 8 - - 3.0
25/02:00pm 9.1 7.1 6.1 81 1.4 NNW 6 9 3 5 - - 3.0
25/01:30pm 9.0 6.4 6.2 82 1.3 S 9 13 5 7 - - 2.6
25/01:00pm 8.9 6.2 5.4 79 1.6 W 9 15 5 8 - - 2.2
25/12:30pm 10.3 5.7 3.7 63 2.9 WNW 17 24 9 13 - - 0.6
25/12:00pm 10.8 5.8 3.8 62 3.1 NW 19 32 10 17 - - 0.6
25/11:30am 9.6 4.8 4.7 71 2.2 W 19 26 10 14 - - 0.4
25/11:00am 10.1 7.3 5.3 72 2.2 NNW 9 20 5 11 - - 0.0
25/10:30am 9.9 5.6 3.2 63 2.9 N 15 26 8 14 - - 0.0
25/10:00am 9.6 5.7 3.4 65 2.7 NNE 13 20 7 11 - - 0.0
25/09:30am 9.6 5.3 3.1 64 2.8 NNE 15 26 8 14 - - 0.0
25/09:00am 8.5 4.1 2.6 66 2.5 NE 15 22 8 12 - - 0.0
25/08:30am 8.3 4.7 2.9 69 2.3 N 11 20 6 11 - - 0.0
25/08:00am 8.5 3.3 2.3 65 2.6 N 19 26 10 14 - - 0.0
25/07:30am 7.6 4.3 2.6 70 2.1 N 9 13 5 7 - - 0.0
25/07:00am 8.0 3.9 2.5 68 2.3 N 13 20 7 11 - - 0.0
25/06:30am 7.9 3.9 2.7 69 2.2 NNE 13 19 7 10 - - 0.0
25/06:00am 8.1 4.0 2.4 67 2.4 N 13 20 7 11 - - 0.0
25/05:30am 7.9 3.9 2.7 69 2.2 N 13 19 7 10 - - 0.0
25/05:00am 8.4 4.7 2.2 65 2.6 NNW 11 20 6 11 - - 0.0
25/04:30am 8.2 4.9 2.2 66 2.5 N 9 19 5 10 - - 0.0
25/04:00am 8.1 3.9 1.8 64 2.6 N 13 22 7 12 - - 0.0
25/03:30am 7.8 3.9 1.4 64 2.6 NNW 11 22 6 12 - - 0.0
25/03:00am 3.6 1.1 1.3 85 0.9 ENE 4 11 2 6 - - 0.0
25/02:30am 4.1 1.1 2.1 87 0.8 SE 7 11 4 6 - - 0.0
25/02:00am 3.4 1.0 2.1 91 0.5 SW 4 7 2 4 - - 0.0
25/01:30am 4.5 2.1 2.3 86 0.9 W 4 9 2 5 - - 0.0
25/01:00am 4.0 1.9 2.0 87 0.8 SW 2 9 1 5 - - 0.0
25/12:30am 4.6 1.8 2.1 84 1.0 ESE 6 11 3 6 - - 0.0
25/12:00am 5.4 2.4 1.9 78 1.4 E 7 11 4 6 - - 0.0
 
Date/Time
EST
Temp
°C
App
Temp
°C
Dew
Point
°C
Rel
Hum
%
Delta-T
°C
Wind Press
QNH
hPa
Press
MSL
hPa
Rain since
9am
mm
Dir  Spd
km/h
Gust
km/h
Spd
kts
Gust
kts
24/11:30pm 6.4 3.4 1.7 72 1.9 N 7 11 4 6 - - 0.0
24/11:00pm 4.6 1.7 1.6 81 1.2 ENE 6 11 3 6 - - 0.0
24/10:30pm 5.3 2.4 1.5 76 1.5 SSE 6 11 3 6 - - 0.0
24/10:00pm 4.6 1.2 1.6 81 1.2 ESE 9 9 5 5 - - 0.0
24/09:30pm 6.2 3.7 1.5 72 1.9 SSW 4 9 2 5 - - 0.0
24/09:00pm 6.8 3.6 1.0 66 2.3 SW 7 9 4 5 - - 0.0
24/08:30pm 7.3 4.2 1.4 66 2.4 W 7 17 4 9 - - 0.0
24/08:00pm 7.9 3.2 0.7 60 2.9 NW 15 28 8 15 - - 0.0
24/07:30pm 7.7 3.4 1.3 64 2.6 WNW 13 19 7 10 - - 0.0
24/07:00pm 7.4 3.9 1.2 65 2.5 W 9 17 5 9 - - 0.0
24/06:30pm 7.6 3.7 0.9 62 2.7 W 11 19 6 10 - - 0.0
24/06:00pm 7.6 4.0 0.9 62 2.7 WNW 9 17 5 9 - - 0.0
24/05:30pm 7.4 3.5 0.9 63 2.6 WSW 11 15 6 8 - - 0.0
24/05:00pm 7.4 3.8 0.9 63 2.6 W 9 15 5 8 - - 0.0
24/04:30pm 8.0 4.4 0.5 59 3.0 WNW 9 20 5 11 - - 0.0
24/04:00pm 8.3 3.9 0.6 58 3.1 W 13 19 7 10 - - 0.0
24/03:30pm 8.5 4.5 0.5 57 3.2 W 11 17 6 9 - - 0.0
24/03:00pm 9.0 3.3 -0.4 52 3.7 WSW 19 30 10 16 - - 0.0
24/02:30pm 9.6 3.7 -0.5 49 4.0 WSW 20 28 11 15 - - 0.0
24/02:00pm 9.3 3.7 0.1 52 3.7 W 19 33 10 18 - - 0.0
24/01:30pm 9.1 3.9 0.1 53 3.6 SW 17 32 9 17 - - 0.0
24/01:00pm 8.9 5.0 1.4 59 3.1 WNW 11 19 6 10 - - 0.0
24/12:30pm 7.7 5.0 2.4 69 2.2 SSW 6 17 3 9 - - 0.0
24/12:00pm 7.6 3.7 1.2 64 2.6 SW 11 17 6 9 - - 0.0
24/11:30am 7.7 3.3 0.1 58 3.0 WSW 13 24 7 13 - - 0.0
24/11:00am 7.2 2.9 0.7 63 2.6 SW 13 20 7 11 - - 0.0
24/10:30am 7.0 3.9 1.3 67 2.3 SW 7 13 4 7 - - 0.0
24/10:00am 5.3 2.6 2.9 84 1.0 E 6 6 3 3 - - 0.0
24/09:30am 4.8 3.3 3.1 89 0.7 CALM 0 7 0 4 - - 0.0
24/09:00am 3.7 1.2 1.7 87 0.8 NW 4 9 2 5 - - 8.4
24/08:30am 2.3 -0.6 1.5 94 0.3 NW 6 7 3 4 - - 8.4
24/08:00am 2.0 -0.9 1.2 94 0.3 NW 6 9 3 5 - - 8.2
24/07:30am 2.7 -0.3 1.1 89 0.6 E 6 9 3 5 - - 8.0
24/07:00am 1.8 -2.2 0.7 92 0.4 NNE 11 13 6 7 - - 8.0

Other Formats:

Comma delimited format used in spreadsheet applications
http://www.bom.gov.au/fwo/IDT60801/IDT60801.95977.axf

JavaScript Object Notation format (JSON) in row-major order
http://www.bom.gov.au/fwo/IDT60801/IDT60801.95977.json